Time;durP1;ratioP1;P1;durP2;ratioP2;P2;SDS_P1;SDS_P2;PMS_P1;PMS_P2;Temp;Humidity;BMP_temperature;BMP_pressure;BME280_temperature;BME280_humidity;BME280_pressure;Samples;Min_cycle;Max_cycle;Signal;HPM_P1;HPM_P2
2023/05/09 00:01:12;;;;;;;3.15;2.05;;;;;;;;;;5081400;28;20040;-84
2023/05/09 00:03:41;;;;;;;2.75;1.45;;;;;;;;;;5074167;28;20036;-83
2023/05/09 00:06:07;;;;;;;2.30;1.38;;;;;;;;;;5076311;28;20060;-85
2023/05/09 00:08:33;;;;;;;2.20;1.42;;;;;;;;;;5079764;28;20027;-85
2023/05/09 00:11:01;;;;;;;2.63;1.50;;;;;;;;;;5077334;28;20020;-87
2023/05/09 00:13:27;;;;;;;1.77;1.42;;;;;;;;;;5079101;28;20021;-87
2023/05/09 00:15:53;;;;;;;1.88;1.38;;;;;;;;;;5076807;28;20024;-85
2023/05/09 00:18:19;;;;;;;3.08;1.40;;;;;;;;;;5080132;28;20780;-88
2023/05/09 00:20:45;;;;;;;1.23;1.05;;;;;;;;;;5086438;28;20035;-84
2023/05/09 00:23:16;;;;;;;3.17;1.33;;;;;;;;;;5075617;28;20040;-83
2023/05/09 00:25:42;;;;;;;2.78;1.48;;;;;;;;;;5084025;28;20023;-86
2023/05/09 00:28:08;;;;;;;2.47;1.80;;;;;;;;;;5078121;28;20633;-84
2023/05/09 00:30:34;;;;;;;2.00;1.27;;;;;;;;;;5083738;28;20058;-85
2023/05/09 00:33:00;;;;;;;2.80;1.40;;;;;;;;;;5082833;28;20020;-85
2023/05/09 00:35:30;;;;;;;6.53;1.83;;;;;;;;;;5082978;28;20384;-84
2023/05/09 00:37:55;;;;;;;2.67;1.80;;;;;;;;;;5080813;28;20082;-83
2023/05/09 00:40:21;;;;;;;3.05;1.88;;;;;;;;;;5073389;28;20396;-86
2023/05/09 00:42:46;;;;;;;3.92;1.48;;;;;;;;;;5079132;28;20529;-85
2023/05/09 00:45:12;;;;;;;4.63;2.10;;;;;;;;;;5079932;28;20028;-85
2023/05/09 00:47:38;;;;;;;3.10;1.80;;;;;;;;;;5080129;28;20492;-82
2023/05/09 00:50:04;;;;;;;3.47;1.90;;;;;;;;;;5083531;28;20494;-83
2023/05/09 00:52:31;;;;;;;2.85;1.75;;;;;;;;;;5116774;27;20659;-84
2023/05/09 00:54:57;;;;;;;1.83;1.13;;;;;;;;;;5088861;28;20487;-84
2023/05/09 00:57:23;;;;;;;2.58;1.70;;;;;;;;;;5075586;28;20033;-82
2023/05/09 00:59:49;;;;;;;2.13;1.48;;;;;;;;;;5080918;28;20027;-83
2023/05/09 01:02:24;;;;;;;3.50;1.77;;;;;;;;;;5078625;28;20036;-83
2023/05/09 01:04:50;;;;;;;2.55;1.45;;;;;;;;;;5077319;28;20028;-82
2023/05/09 01:07:43;;;;;;;2.33;1.85;;;;;;;;;;5080163;28;20535;-84
2023/05/09 01:10:20;;;;;;;2.85;1.75;;;;;;;;;;5078454;28;20041;-82
2023/05/09 01:13:03;;;;;;;3.03;1.95;;;;;;;;;;5071210;28;20035;-84
2023/05/09 01:15:45;;;;;;;2.50;1.67;;;;;;;;;;5102001;28;20123;-83
2023/05/09 01:18:26;;;;;;;4.68;1.95;;;;;;;;;;5069273;28;20039;-83
2023/05/09 01:21:16;;;;;;;3.40;2.33;;;;;;;;;;5079360;28;20169;-80
2023/05/09 01:23:44;;;;;;;3.00;1.58;;;;;;;;;;5075737;28;20084;-83
2023/05/09 01:26:24;;;;;;;4.45;2.50;;;;;;;;;;5075488;28;20056;-83
2023/05/09 01:29:27;;;;;;;4.97;2.80;;;;;;;;;;5075528;28;20027;-87
2023/05/09 01:31:55;;;;;;;4.13;2.13;;;;;;;;;;5069913;28;20035;-86
2023/05/09 01:34:23;;;;;;;4.68;2.20;;;;;;;;;;5078864;28;20020;-85
2023/05/09 01:36:52;;;;;;;2.40;1.75;;;;;;;;;;5078056;28;20044;-83
2023/05/09 01:39:19;;;;;;;2.50;1.67;;;;;;;;;;5077052;28;20027;-86
2023/05/09 01:41:54;;;;;;;2.60;2.10;;;;;;;;;;5083337;28;20040;-84
2023/05/09 01:44:21;;;;;;;3.33;2.25;;;;;;;;;;5082308;28;20383;-83
2023/05/09 01:46:49;;;;;;;2.58;1.75;;;;;;;;;;5077846;28;20031;-82
2023/05/09 01:49:17;;;;;;;2.95;1.80;;;;;;;;;;5071713;28;20017;-83
2023/05/09 01:51:47;;;;;;;3.13;2.10;;;;;;;;;;5079575;28;20101;-83
2023/05/09 01:54:13;;;;;;;;;;;;;;;;;;5077237;28;20028;-82
2023/05/09 01:56:41;;;;;;;2.33;1.70;;;;;;;;;;5078128;28;20002;-81
2023/05/09 01:59:06;;;;;;;3.20;1.95;;;;;;;;;;5082229;28;20039;-83
2023/05/09 02:01:33;;;;;;;3.53;2.05;;;;;;;;;;5079712;28;20468;-83
2023/05/09 02:04:01;;;;;;;2.60;1.67;;;;;;;;;;5095033;28;20056;-83
2023/05/09 02:06:28;;;;;;;2.78;1.90;;;;;;;;;;5079693;28;20020;-85
2023/05/09 02:08:55;;;;;;;2.33;1.75;;;;;;;;;;5073139;28;20025;-83
2023/05/09 02:11:23;;;;;;;2.92;1.95;;;;;;;;;;5080362;28;20086;-83
2023/05/09 02:13:49;;;;;;;3.13;1.98;;;;;;;;;;5079490;28;20035;-82
2023/05/09 02:16:21;;;;;;;4.00;1.52;;;;;;;;;;5080722;28;20040;-82
2023/05/09 02:18:51;;;;;;;2.75;1.75;;;;;;;;;;5096474;28;20032;-82
2023/05/09 02:21:16;;;;;;;5.63;1.88;;;;;;;;;;5074847;28;20438;-84
2023/05/09 02:23:45;;;;;;;3.45;1.95;;;;;;;;;;5084162;28;20028;-81
2023/05/09 02:26:11;;;;;;;3.35;2.10;;;;;;;;;;5072726;28;20036;-82
2023/05/09 02:28:38;;;;;;;2.95;1.50;;;;;;;;;;5082388;28;20030;-81
2023/05/09 02:31:05;;;;;;;4.57;2.67;;;;;;;;;;5079282;28;20028;-82
2023/05/09 02:33:35;;;;;;;2.67;1.73;;;;;;;;;;5081308;28;20070;-82
2023/05/09 02:36:01;;;;;;;9.00;1.92;;;;;;;;;;5086099;28;20052;-81
2023/05/09 02:38:31;;;;;;;4.68;1.98;;;;;;;;;;5082734;28;20028;-84
2023/05/09 02:40:56;;;;;;;;;;;;;;;;;;5077002;28;20039;-84
2023/05/09 02:43:22;;;;;;;2.83;1.70;;;;;;;;;;5115219;28;19916;-85
2023/05/09 02:45:47;;;;;;;2.80;1.75;;;;;;;;;;5074996;28;20029;-82
2023/05/09 02:48:13;;;;;;;3.78;2.17;;;;;;;;;;5076732;28;20095;-81
2023/05/09 02:50:42;;;;;;;2.85;1.88;;;;;;;;;;5080223;28;20034;-82
2023/05/09 02:53:08;;;;;;;2.65;1.60;;;;;;;;;;5081349;28;20585;-84
2023/05/09 02:55:34;;;;;;;2.90;1.58;;;;;;;;;;5077175;28;20368;-82
2023/05/09 02:58:00;;;;;;;2.72;1.88;;;;;;;;;;5077021;28;20028;-82
2023/05/09 03:00:25;;;;;;;3.17;2.25;;;;;;;;;;5077636;28;20024;-83
2023/05/09 03:02:51;;;;;;;3.58;1.80;;;;;;;;;;5072202;28;20041;-81
2023/05/09 03:05:19;;;;;;;2.85;1.58;;;;;;;;;;5072619;28;20025;-83
2023/05/09 03:07:44;;;;;;;6.20;1.98;;;;;;;;;;5088241;28;20077;-84
2023/05/09 03:10:12;;;;;;;2.92;1.73;;;;;;;;;;5078824;28;20107;-82
2023/05/09 03:12:38;;;;;;;2.47;1.70;;;;;;;;;;5090928;28;20024;-83
2023/05/09 03:15:10;;;;;;;2.42;1.85;;;;;;;;;;5074653;28;20025;-82
2023/05/09 03:17:35;;;;;;;2.95;1.77;;;;;;;;;;5079651;28;20056;-82
2023/05/09 03:20:06;;;;;;;7.57;1.65;;;;;;;;;;5080293;28;20524;-83
2023/05/09 03:22:32;;;;;;;2.85;1.92;;;;;;;;;;5086648;28;20032;-83
2023/05/09 03:24:57;;;;;;;3.72;2.10;;;;;;;;;;5076371;28;20076;-82
2023/05/09 03:27:26;;;;;;;2.38;1.60;;;;;;;;;;5079216;28;20050;-81
2023/05/09 03:29:54;;;;;;;2.55;1.55;;;;;;;;;;5076343;28;20388;-85
2023/05/09 03:32:22;;;;;;;2.95;1.90;;;;;;;;;;5074860;28;20024;-82
2023/05/09 03:34:48;;;;;;;3.20;1.70;;;;;;;;;;5095951;28;20035;-81
2023/05/09 03:37:13;;;;;;;2.95;2.00;;;;;;;;;;5086428;28;20056;-84
2023/05/09 03:39:39;;;;;;;5.38;2.58;;;;;;;;;;5078641;28;20032;-82
2023/05/09 03:42:04;;;;;;;4.18;2.20;;;;;;;;;;5081453;28;20383;-84
2023/05/09 03:44:35;;;;;;;4.10;2.58;;;;;;;;;;5078438;28;20422;-83
2023/05/09 03:47:01;;;;;;;3.88;2.33;;;;;;;;;;5080208;28;20032;-80
2023/05/09 03:49:27;;;;;;;3.70;2.30;;;;;;;;;;5076164;28;20127;-82
2023/05/09 03:51:52;;;;;;;2.70;1.85;;;;;;;;;;5076051;28;20024;-80
2023/05/09 03:54:18;;;;;;;4.32;2.90;;;;;;;;;;5081976;28;20028;-81
2023/05/09 03:56:43;;;;;;;4.30;2.47;;;;;;;;;;5084748;28;20028;-82
2023/05/09 03:59:08;;;;;;;6.57;3.05;;;;;;;;;;5079062;28;20036;-82
2023/05/09 04:01:34;;;;;;;4.93;3.20;;;;;;;;;;5074540;28;20074;-81
2023/05/09 04:03:59;;;;;;;4.65;2.75;;;;;;;;;;5078793;28;20111;-82
2023/05/09 04:06:25;;;;;;;3.60;2.20;;;;;;;;;;5078824;28;20028;-80
2023/05/09 04:08:54;;;;;;;3.70;2.30;;;;;;;;;;5081032;28;20012;-83
2023/05/09 04:11:20;;;;;;;3.28;2.00;;;;;;;;;;5077506;28;20035;-81
2023/05/09 04:13:46;;;;;;;3.75;2.58;;;;;;;;;;5073977;28;20070;-81
2023/05/09 04:16:11;;;;;;;4.70;2.55;;;;;;;;;;5083154;28;20032;-83
2023/05/09 04:18:38;;;;;;;3.22;2.20;;;;;;;;;;5074434;28;20020;-82
2023/05/09 04:21:04;;;;;;;3.17;2.25;;;;;;;;;;5072341;28;20551;-82
2023/05/09 04:23:30;;;;;;;3.83;2.38;;;;;;;;;;5066015;28;20532;-79
2023/05/09 04:25:55;;;;;;;5.82;2.20;;;;;;;;;;5076225;28;20099;-80
2023/05/09 04:28:21;;;;;;;3.63;2.15;;;;;;;;;;5079967;28;20020;-81
2023/05/09 04:30:46;;;;;;;3.78;2.30;;;;;;;;;;5080099;28;20083;-80
2023/05/09 04:33:12;;;;;;;2.47;1.50;;;;;;;;;;5072796;28;20035;-79
2023/05/09 04:35:37;;;;;;;4.30;1.92;;;;;;;;;;5074010;28;20807;-79
2023/05/09 04:38:03;;;;;;;3.10;1.73;;;;;;;;;;5074223;28;20035;-80
2023/05/09 04:40:29;;;;;;;3.45;1.88;;;;;;;;;;5070883;28;20048;-80
2023/05/09 04:42:56;;;;;;;1.95;1.30;;;;;;;;;;5075715;28;20020;-81
2023/05/09 04:45:21;;;;;;;2.08;1.40;;;;;;;;;;5078754;28;20452;-80
2023/05/09 04:47:47;;;;;;;2.90;1.48;;;;;;;;;;5079639;28;20146;-80
2023/05/09 04:50:12;;;;;;;3.92;1.60;;;;;;;;;;5072218;28;20399;-82
2023/05/09 04:52:38;;;;;;;2.47;1.42;;;;;;;;;;5074933;28;20090;-81
2023/05/09 04:55:03;;;;;;;6.05;1.90;;;;;;;;;;5074859;28;20032;-79
2023/05/09 04:57:28;;;;;;;2.55;1.20;;;;;;;;;;5073148;28;20360;-80
2023/05/09 04:59:54;;;;;;;2.83;1.73;;;;;;;;;;5080726;28;20036;-80
2023/05/09 05:02:20;;;;;;;3.85;2.05;;;;;;;;;;5079609;28;20031;-79
2023/05/09 05:04:45;;;;;;;2.60;1.58;;;;;;;;;;5079598;28;20024;-80
2023/05/09 05:07:11;;;;;;;3.65;2.17;;;;;;;;;;5078669;28;20066;-80
2023/05/09 05:09:36;;;;;;;4.25;1.60;;;;;;;;;;5074249;28;20036;-81
2023/05/09 05:12:01;;;;;;;2.42;1.42;;;;;;;;;;5073786;28;20023;-82
2023/05/09 05:14:27;;;;;;;1.80;1.27;;;;;;;;;;5074907;28;20043;-80
2023/05/09 05:16:52;;;;;;;2.88;1.85;;;;;;;;;;5070869;28;20074;-79
2023/05/09 05:19:17;;;;;;;1.80;1.33;;;;;;;;;;5079407;28;20024;-80
2023/05/09 05:21:43;;;;;;;2.78;1.52;;;;;;;;;;5073744;28;20028;-80
2023/05/09 05:24:08;;;;;;;3.00;1.92;;;;;;;;;;5075167;28;20510;-81
2023/05/09 05:26:34;;;;;;;3.25;2.20;;;;;;;;;;5074976;28;20024;-80
2023/05/09 05:28:59;;;;;;;4.32;2.25;;;;;;;;;;5084110;28;20020;-82
2023/05/09 05:31:25;;;;;;;3.83;2.50;;;;;;;;;;5084251;28;20391;-80
2023/05/09 05:33:50;;;;;;;4.70;2.70;;;;;;;;;;5075498;28;20119;-80
2023/05/09 05:36:16;;;;;;;3.00;2.00;;;;;;;;;;5067850;28;20076;-78
2023/05/09 05:38:41;;;;;;;3.47;1.73;;;;;;;;;;5083218;28;20066;-80
2023/05/09 05:41:10;;;;;;;4.35;1.90;;;;;;;;;;5071381;28;20038;-79
2023/05/09 05:43:35;;;;;;;3.53;1.85;;;;;;;;;;5060720;28;20468;-80
2023/05/09 05:46:01;;;;;;;3.47;2.05;;;;;;;;;;5078158;28;20032;-79
2023/05/09 05:48:26;;;;;;;3.80;2.20;;;;;;;;;;5088006;28;20028;-81
2023/05/09 05:50:51;;;;;;;2.78;1.88;;;;;;;;;;5072861;28;20032;-82
2023/05/09 05:53:17;;;;;;;5.05;1.70;;;;;;;;;;5082694;28;20032;-83
2023/05/09 05:55:44;;;;;;;2.28;1.70;;;;;;;;;;5075705;28;20391;-84
2023/05/09 05:58:10;;;;;;;3.50;1.35;;;;;;;;;;5080029;28;20380;-81
2023/05/09 06:00:35;;;;;;;3.45;1.42;;;;;;;;;;5081817;28;20024;-81
2023/05/09 06:03:00;;;;;;;4.05;1.92;;;;;;;;;;5072493;28;20035;-82
2023/05/09 06:05:26;;;;;;;2.65;1.42;;;;;;;;;;5074304;28;20775;-82
2023/05/09 06:07:51;;;;;;;2.83;1.55;;;;;;;;;;5073889;28;20032;-80
2023/05/09 06:10:17;;;;;;;3.80;2.00;;;;;;;;;;5072361;28;20778;-80
2023/05/09 06:12:42;;;;;;;4.05;1.83;;;;;;;;;;5074783;28;20036;-79
2023/05/09 06:15:08;;;;;;;2.53;1.40;;;;;;;;;;5071926;28;20036;-80
2023/05/09 06:17:33;;;;;;;6.70;1.88;;;;;;;;;;5077613;28;20028;-80
2023/05/09 06:19:59;;;;;;;3.03;1.63;;;;;;;;;;5071961;28;20029;-80
2023/05/09 06:22:24;;;;;;;1.33;0.93;;;;;;;;;;5070834;28;20465;-79
2023/05/09 06:24:49;;;;;;;2.03;1.27;;;;;;;;;;5068699;28;20032;-81
2023/05/09 06:27:15;;;;;;;2.17;1.27;;;;;;;;;;5067688;28;20361;-81
2023/05/09 06:29:40;;;;;;;2.97;1.42;;;;;;;;;;5074199;28;20082;-81
2023/05/09 06:32:06;;;;;;;2.63;1.58;;;;;;;;;;5077466;28;20017;-82
2023/05/09 06:34:31;;;;;;;1.40;1.27;;;;;;;;;;5072793;28;20047;-79
2023/05/09 06:36:56;;;;;;;3.55;1.38;;;;;;;;;;5071279;28;20055;-82
2023/05/09 06:39:22;;;;;;;2.58;1.65;;;;;;;;;;5103911;28;20494;-83
2023/05/09 06:41:47;;;;;;;3.78;1.60;;;;;;;;;;5068872;28;20035;-80
2023/05/09 06:44:13;;;;;;;5.30;1.17;;;;;;;;;;5072945;28;20153;-81
2023/05/09 06:46:38;;;;;;;2.35;1.38;;;;;;;;;;5070351;28;20066;-79
2023/05/09 06:49:04;;;;;;;6.97;1.50;;;;;;;;;;5108783;27;20048;-81
2023/05/09 06:51:31;;;;;;;3.38;0.90;;;;;;;;;;5075691;28;20028;-81
2023/05/09 06:53:56;;;;;;;1.00;0.85;;;;;;;;;;5070783;28;20032;-81
2023/05/09 06:56:22;;;;;;;1.83;1.10;;;;;;;;;;5074696;28;20028;-82
2023/05/09 06:58:48;;;;;;;2.25;0.70;;;;;;;;;;5076907;28;20131;-80
2023/05/09 07:01:13;;;;;;;1.65;0.80;;;;;;;;;;5077760;28;20032;-80
2023/05/09 07:03:38;;;;;;;7.07;0.80;;;;;;;;;;5071153;28;20028;-81
2023/05/09 07:06:04;;;;;;;1.48;0.88;;;;;;;;;;5073828;28;20083;-80
2023/05/09 07:08:29;;;;;;;1.73;0.85;;;;;;;;;;5075903;28;20029;-81
2023/05/09 07:10:55;;;;;;;2.08;0.90;;;;;;;;;;5082318;28;20115;-81
2023/05/09 07:13:20;;;;;;;5.15;1.05;;;;;;;;;;5080534;28;20029;-81
2023/05/09 07:15:46;;;;;;;4.53;0.55;;;;;;;;;;5074867;28;20029;-80
2023/05/09 07:18:11;;;;;;;1.10;0.70;;;;;;;;;;5074606;28;20443;-84
2023/05/09 07:20:36;;;;;;;3.17;0.82;;;;;;;;;;5073754;28;20026;-82
2023/05/09 07:23:03;;;;;;;1.00;0.65;;;;;;;;;;5081652;28;20020;-81
2023/05/09 07:25:28;;;;;;;4.80;1.00;;;;;;;;;;5074547;28;20048;-80
2023/05/09 07:27:54;;;;;;;2.35;0.73;;;;;;;;;;5075451;28;20067;-81
2023/05/09 07:30:19;;;;;;;1.63;0.82;;;;;;;;;;5077630;28;20048;-82
2023/05/09 07:32:45;;;;;;;1.83;0.75;;;;;;;;;;5080141;28;20041;-80
2023/05/09 07:35:10;;;;;;;2.38;0.95;;;;;;;;;;5080965;28;20031;-81
2023/05/09 07:37:36;;;;;;;1.70;0.98;;;;;;;;;;5078601;28;20048;-80
2023/05/09 07:40:02;;;;;;;1.35;0.80;;;;;;;;;;5083803;28;20025;-81
2023/05/09 07:42:29;;;;;;;5.28;0.80;;;;;;;;;;5079464;28;20110;-79
2023/05/09 07:44:55;;;;;;;1.70;0.88;;;;;;;;;;5073099;28;20677;-81
2023/05/09 07:47:20;;;;;;;0.60;0.60;;;;;;;;;;5075616;28;20016;-81
2023/05/09 07:49:46;;;;;;;1.05;0.70;;;;;;;;;;5072910;28;20585;-80
2023/05/09 07:52:12;;;;;;;1.67;0.77;;;;;;;;;;5070279;28;20032;-81
2023/05/09 07:54:37;;;;;;;6.78;1.33;;;;;;;;;;5073643;28;20069;-83
2023/05/09 07:57:03;;;;;;;2.42;1.10;;;;;;;;;;5071388;28;20028;-83
2023/05/09 07:59:28;;;;;;;1.38;0.70;;;;;;;;;;5074757;28;20029;-86
2023/05/09 08:01:54;;;;;;;1.08;0.90;;;;;;;;;;5077089;28;20020;-85
2023/05/09 08:04:19;;;;;;;5.32;0.90;;;;;;;;;;5073142;28;20384;-85
2023/05/09 08:06:44;;;;;;;1.55;0.98;;;;;;;;;;5071054;28;20021;-83
2023/05/09 08:09:10;;;;;;;1.48;1.00;;;;;;;;;;5083073;28;20021;-83
2023/05/09 08:11:35;;;;;;;1.50;1.05;;;;;;;;;;5073254;28;20024;-83
2023/05/09 08:14:01;;;;;;;0.68;0.68;;;;;;;;;;5075559;28;20027;-84
2023/05/09 08:16:26;;;;;;;1.23;0.80;;;;;;;;;;5083884;28;20035;-83
2023/05/09 08:18:53;;;;;;;0.98;0.70;;;;;;;;;;5077317;28;20028;-80
2023/05/09 08:21:20;;;;;;;2.00;0.98;;;;;;;;;;5073838;28;20033;-80
2023/05/09 08:23:45;;;;;;;1.20;0.77;;;;;;;;;;5069540;28;20021;-82
2023/05/09 08:26:11;;;;;;;1.17;0.70;;;;;;;;;;5078117;28;20142;-81
2023/05/09 08:28:36;;;;;;;1.17;0.77;;;;;;;;;;5084880;28;20035;-82
2023/05/09 08:31:07;;;;;;;1.90;1.17;;;;;;;;;;5073349;28;20036;-83
2023/05/09 08:33:33;;;;;;;1.98;1.30;;;;;;;;;;5081520;28;20387;-80
2023/05/09 08:35:59;;;;;;;3.22;1.80;;;;;;;;;;5072951;28;20485;-83
2023/05/09 08:38:27;;;;;;;2.22;0.88;;;;;;;;;;5078474;28;21969;-82
2023/05/09 08:40:52;;;;;;;2.42;1.23;;;;;;;;;;5071134;28;20286;-80
2023/05/09 08:43:20;;;;;;;1.98;1.20;;;;;;;;;;5068593;28;20135;-82
2023/05/09 08:45:50;;;;;;;0.82;0.55;;;;;;;;;;5072017;28;20033;-79
2023/05/09 08:48:19;;;;;;;3.15;0.80;;;;;;;;;;5076586;28;20032;-81
2023/05/09 08:50:45;;;;;;;1.98;0.90;;;;;;;;;;5073296;28;20070;-83
2023/05/09 08:53:11;;;;;;;3.83;1.15;;;;;;;;;;5084991;28;20060;-82
2023/05/09 08:55:37;;;;;;;1.02;0.70;;;;;;;;;;5072701;28;20040;-84
2023/05/09 08:58:03;;;;;;;1.05;0.70;;;;;;;;;;5062077;28;20059;-83
2023/05/09 09:00:31;;;;;;;1.52;0.90;;;;;;;;;;5070195;28;20028;-83
2023/05/09 09:03:00;;;;;;;0.82;0.70;;;;;;;;;;5067418;28;20028;-83
2023/05/09 09:05:28;;;;;;;1.15;0.73;;;;;;;;;;5111736;27;20047;-84
2023/05/09 09:07:54;;;;;;;1.35;0.70;;;;;;;;;;5073056;28;20032;-82
2023/05/09 09:10:24;;;;;;;1.33;1.00;;;;;;;;;;5066930;28;20452;-81
2023/05/09 09:12:52;;;;;;;4.35;1.35;;;;;;;;;;5062771;28;20029;-81
2023/05/09 09:15:19;;;;;;;0.63;0.52;;;;;;;;;;5069135;28;20029;-84
2023/05/09 09:17:47;;;;;;;1.88;1.08;;;;;;;;;;5068268;28;20049;-80
2023/05/09 09:20:14;;;;;;;1.67;0.93;;;;;;;;;;5070358;28;20055;-84
2023/05/09 09:22:41;;;;;;;1.33;1.00;;;;;;;;;;5075268;28;20061;-81
2023/05/09 09:25:07;;;;;;;3.13;1.33;;;;;;;;;;5079485;28;20054;-80
2023/05/09 09:27:33;;;;;;;1.55;1.17;;;;;;;;;;5071749;28;20032;-80
2023/05/09 09:30:09;;;;;;;0.70;0.70;;;;;;;;;;5076292;28;20416;-82
2023/05/09 09:32:35;;;;;;;1.30;0.88;;;;;;;;;;5067338;28;20472;-80
2023/05/09 09:35:08;;;;;;;2.45;1.25;;;;;;;;;;5072970;28;20094;-80
2023/05/09 09:37:35;;;;;;;1.30;0.90;;;;;;;;;;5077239;28;20127;-84
2023/05/09 09:40:02;;;;;;;1.00;0.85;;;;;;;;;;5083179;28;20035;-81
2023/05/09 09:42:41;;;;;;;1.40;1.05;;;;;;;;;;5088842;28;20127;-79
2023/05/09 09:45:15;;;;;;;1.10;0.98;;;;;;;;;;5075627;28;20523;-83
2023/05/09 09:47:45;;;;;;;2.22;1.20;;;;;;;;;;5070579;28;20046;-82
2023/05/09 09:50:13;;;;;;;1.40;1.02;;;;;;;;;;5075183;28;20044;-82
2023/05/09 09:52:49;;;;;;;1.05;0.93;;;;;;;;;;5071946;28;20035;-81
2023/05/09 09:55:15;;;;;;;1.60;1.25;;;;;;;;;;5081146;28;20032;-80
2023/05/09 09:57:43;;;;;;;4.35;1.40;;;;;;;;;;5073688;28;20031;-81
2023/05/09 10:00:10;;;;;;;1.48;1.20;;;;;;;;;;5075300;28;20024;-81
2023/05/09 10:02:46;;;;;;;2.20;1.60;;;;;;;;;;5075034;28;20066;-84
2023/05/09 10:05:17;;;;;;;2.22;1.38;;;;;;;;;;5076475;28;20044;-81
2023/05/09 10:07:42;;;;;;;1.95;1.30;;;;;;;;;;5083228;28;20024;-83
2023/05/09 10:10:08;;;;;;;1.33;1.15;;;;;;;;;;5083850;28;20372;-82
2023/05/09 10:12:36;;;;;;;1.75;1.25;;;;;;;;;;5081181;28;20105;-83
2023/05/09 10:15:05;;;;;;;6.78;1.25;;;;;;;;;;5073892;28;20115;-83
2023/05/09 10:17:32;;;;;;;1.73;1.23;;;;;;;;;;5086609;28;20396;-82
2023/05/09 10:20:03;;;;;;;1.00;0.90;;;;;;;;;;5086002;28;20486;-79
2023/05/09 10:22:32;;;;;;;1.73;1.10;;;;;;;;;;5083622;28;20022;-81
2023/05/09 10:25:21;;;;;;;1.80;1.10;;;;;;;;;;5073682;28;20477;-81
2023/05/09 10:27:47;;;;;;;2.38;1.20;;;;;;;;;;5075412;28;20044;-81
2023/05/09 10:30:18;;;;;;;1.75;1.48;;;;;;;;;;5087146;28;20040;-83
2023/05/09 10:33:16;;;;;;;2.20;1.50;;;;;;;;;;5085672;28;20033;-80
2023/05/09 10:35:46;;;;;;;2.65;1.83;;;;;;;;;;5079656;28;20040;-82
2023/05/09 10:38:12;;;;;;;2.92;1.73;;;;;;;;;;5073919;28;20428;-80
2023/05/09 10:40:39;;;;;;;2.00;1.50;;;;;;;;;;5079493;28;20472;-79
2023/05/09 10:43:06;;;;;;;2.28;1.58;;;;;;;;;;5084703;28;20032;-80
2023/05/09 10:45:32;;;;;;;3.30;1.80;;;;;;;;;;5075671;28;20093;-81
2023/05/09 10:47:59;;;;;;;2.72;1.63;;;;;;;;;;5085438;28;20407;-79
2023/05/09 10:50:24;;;;;;;7.30;1.70;;;;;;;;;;5075448;28;20063;-81
2023/05/09 10:53:15;;;;;;;1.80;1.40;;;;;;;;;;5076718;28;20041;-81
2023/05/09 10:55:59;;;;;;;2.45;1.58;;;;;;;;;;5069655;28;20030;-81
2023/05/09 10:58:30;;;;;;;4.45;1.70;;;;;;;;;;5078392;28;20016;-82
2023/05/09 11:01:00;;;;;;;3.22;1.70;;;;;;;;;;5076714;28;20108;-81
2023/05/09 11:03:26;;;;;;;;;;;;;;;;;;5075606;28;20043;-81
2023/05/09 11:05:54;;;;;;;2.03;1.35;;;;;;;;;;5082970;28;19924;-81
2023/05/09 11:08:20;;;;;;;2.33;1.70;;;;;;;;;;5080974;28;20030;-81
2023/05/09 11:10:46;;;;;;;2.38;1.60;;;;;;;;;;5077567;28;20426;-81
2023/05/09 11:13:12;;;;;;;3.55;1.75;;;;;;;;;;5083386;28;20085;-81
2023/05/09 11:15:52;;;;;;;2.50;1.85;;;;;;;;;;5071165;28;20082;-81
2023/05/09 11:18:18;;;;;;;2.30;1.60;;;;;;;;;;5086108;28;20038;-80
2023/05/09 11:20:47;;;;;;;3.45;1.80;;;;;;;;;;5073033;28;20111;-81
2023/05/09 11:23:16;;;;;;;3.60;1.95;;;;;;;;;;5083368;28;20537;-80
2023/05/09 11:25:45;;;;;;;2.65;1.73;;;;;;;;;;5083845;28;20028;-81
2023/05/09 11:28:25;;;;;;;2.23;1.50;;;;;;;;;;5085494;28;20042;-81
2023/05/09 11:30:51;;;;;;;3.10;2.13;;;;;;;;;;5068474;28;20476;-81
2023/05/09 11:33:23;;;;;;;2.83;1.60;;;;;;;;;;5078306;28;20103;-79
2023/05/09 11:36:16;;;;;;;3.50;2.05;;;;;;;;;;5082411;28;20079;-81
2023/05/09 11:38:41;;;;;;;2.25;1.48;;;;;;;;;;5070317;28;20032;-81
2023/05/09 11:41:07;;;;;;;6.25;1.80;;;;;;;;;;5077424;28;20027;-80
2023/05/09 11:43:35;;;;;;;2.80;1.70;;;;;;;;;;5085094;28;20028;-79
2023/05/09 11:46:01;;;;;;;9.63;2.10;;;;;;;;;;5078290;28;20500;-80
2023/05/09 11:48:27;;;;;;;1.98;1.52;;;;;;;;;;5079948;28;20025;-82
2023/05/09 11:50:52;;;;;;;2.25;1.60;;;;;;;;;;5074417;28;20039;-80
2023/05/09 11:53:18;;;;;;;2.70;1.88;;;;;;;;;;5083914;28;20077;-80
2023/05/09 11:55:43;;;;;;;2.38;1.65;;;;;;;;;;5081198;28;20021;-81
2023/05/09 11:58:09;;;;;;;2.42;1.60;;;;;;;;;;5075731;28;20036;-81
2023/05/09 12:00:36;;;;;;;3.00;1.50;;;;;;;;;;5079018;28;20051;-82
2023/05/09 12:03:04;;;;;;;2.30;1.70;;;;;;;;;;5104089;27;20029;-82
2023/05/09 12:05:29;;;;;;;5.95;2.20;;;;;;;;;;5114272;27;20023;-82
2023/05/09 12:08:00;;;;;;;2.80;1.80;;;;;;;;;;5077500;28;20033;-82
2023/05/09 12:10:26;;;;;;;2.90;2.05;;;;;;;;;;5080784;28;20107;-82
2023/05/09 12:12:54;;;;;;;2.80;1.88;;;;;;;;;;5075391;28;20107;-81
2023/05/09 12:15:20;;;;;;;3.45;2.25;;;;;;;;;;5078741;28;20487;-83
2023/05/09 12:17:46;;;;;;;3.05;1.98;;;;;;;;;;5076860;28;20145;-82
2023/05/09 12:20:12;;;;;;;3.20;2.10;;;;;;;;;;5084931;28;20035;-84
2023/05/09 12:22:37;;;;;;;4.28;2.53;;;;;;;;;;5082627;28;20495;-84
2023/05/09 12:25:08;;;;;;;3.60;2.13;;;;;;;;;;5082534;28;20032;-82
2023/05/09 12:27:35;;;;;;;3.97;2.67;;;;;;;;;;5079837;28;20030;-83
2023/05/09 12:30:02;;;;;;;5.28;2.60;;;;;;;;;;5072916;28;20028;-82
2023/05/09 12:32:31;;;;;;;5.22;2.63;;;;;;;;;;5076763;28;20570;-81
2023/05/09 12:34:58;;;;;;;5.80;2.65;;;;;;;;;;5074702;28;20094;-82
2023/05/09 12:37:24;;;;;;;3.97;2.47;;;;;;;;;;5074005;28;20053;-83
2023/05/09 12:40:05;;;;;;;4.55;2.17;;;;;;;;;;5080574;28;20032;-81
2023/05/09 12:42:31;;;;;;;4.60;2.85;;;;;;;;;;5075954;28;20044;-81
2023/05/09 12:44:57;;;;;;;4.57;2.50;;;;;;;;;;5083939;28;20028;-81
2023/05/09 12:47:26;;;;;;;3.85;2.05;;;;;;;;;;5075003;28;20039;-82
2023/05/09 12:49:51;;;;;;;7.88;2.83;;;;;;;;;;5079530;28;20016;-82
2023/05/09 12:52:19;;;;;;;5.82;3.65;;;;;;;;;;5072877;28;20024;-83
2023/05/09 12:54:46;;;;;;;7.97;3.72;;;;;;;;;;5071898;28;20488;-82
2023/05/09 12:57:23;;;;;;;6.95;4.20;;;;;;;;;;5080864;28;20052;-82
2023/05/09 12:59:48;;;;;;;7.03;3.88;;;;;;;;;;5079160;28;20034;-82
2023/05/09 13:02:14;;;;;;;7.85;3.63;;;;;;;;;;5070305;28;20118;-82
2023/05/09 13:04:40;;;;;;;8.93;4.55;;;;;;;;;;5077545;28;20162;-83
2023/05/09 13:07:11;;;;;;;7.70;4.13;;;;;;;;;;5108215;27;20025;-84
2023/05/09 13:09:53;;;;;;;5.03;2.97;;;;;;;;;;5078604;28;20017;-82
2023/05/09 13:12:19;;;;;;;6.93;3.90;;;;;;;;;;5073508;28;20115;-82
2023/05/09 13:14:44;;;;;;;6.20;3.60;;;;;;;;;;5079784;28;20107;-85
2023/05/09 13:17:10;;;;;;;5.95;3.78;;;;;;;;;;5075039;28;20055;-84
2023/05/09 13:19:38;;;;;;;6.03;4.07;;;;;;;;;;5085610;28;20111;-82
2023/05/09 13:22:03;;;;;;;8.27;4.22;;;;;;;;;;5075632;28;20108;-83
2023/05/09 13:24:29;;;;;;;6.35;3.92;;;;;;;;;;5074679;28;20787;-84
2023/05/09 13:26:54;;;;;;;6.55;4.28;;;;;;;;;;5074577;28;20385;-80
2023/05/09 13:29:19;;;;;;;5.78;3.58;;;;;;;;;;5082532;28;20037;-82
2023/05/09 13:31:46;;;;;;;6.38;3.78;;;;;;;;;;5075923;28;20040;-83
2023/05/09 13:34:12;;;;;;;7.68;4.32;;;;;;;;;;5073527;28;20073;-81
2023/05/09 13:36:37;;;;;;;6.75;4.05;;;;;;;;;;5079783;28;20067;-80
2023/05/09 13:39:03;;;;;;;6.72;3.85;;;;;;;;;;5076860;28;20293;-83
2023/05/09 13:41:30;;;;;;;5.72;3.33;;;;;;;;;;5067730;28;20024;-80
2023/05/09 13:43:56;;;;;;;4.07;2.67;;;;;;;;;;5075702;28;20031;-82
2023/05/09 13:46:21;;;;;;;5.57;3.38;;;;;;;;;;5072630;28;20032;-80
2023/05/09 13:48:47;;;;;;;4.30;3.17;;;;;;;;;;5077224;28;20464;-80
2023/05/09 13:51:12;;;;;;;5.18;2.83;;;;;;;;;;5076005;28;20045;-80
2023/05/09 13:53:38;;;;;;;6.20;3.15;;;;;;;;;;5070858;28;20028;-82
2023/05/09 13:56:05;;;;;;;5.55;3.05;;;;;;;;;;5080793;28;20024;-79
2023/05/09 13:58:33;;;;;;;5.28;3.10;;;;;;;;;;5071605;28;20509;-84
2023/05/09 14:00:59;;;;;;;5.35;3.15;;;;;;;;;;5076972;28;20500;-82
2023/05/09 14:03:25;;;;;;;6.30;3.35;;;;;;;;;;5077470;28;20033;-82
2023/05/09 14:05:50;;;;;;;4.97;2.83;;;;;;;;;;5070664;28;20027;-80
2023/05/09 14:08:16;;;;;;;4.55;2.97;;;;;;;;;;5072907;28;20024;-82
2023/05/09 14:10:43;;;;;;;5.40;2.75;;;;;;;;;;5066011;28;20035;-82
2023/05/09 14:13:09;;;;;;;4.13;2.33;;;;;;;;;;5074132;28;20024;-82
2023/05/09 14:15:35;;;;;;;4.30;2.97;;;;;;;;;;5082832;28;20474;-82
2023/05/09 14:18:01;;;;;;;4.88;2.45;;;;;;;;;;5076826;28;20036;-79
2023/05/09 14:20:28;;;;;;;3.50;2.00;;;;;;;;;;5074697;28;20085;-84
2023/05/09 14:22:58;;;;;;;3.80;2.30;;;;;;;;;;5075596;28;20468;-84
2023/05/09 14:25:23;;;;;;;3.83;2.38;;;;;;;;;;5076659;28;20125;-83
2023/05/09 14:27:49;;;;;;;4.28;1.85;;;;;;;;;;5076032;28;20066;-80
2023/05/09 14:30:14;;;;;;;2.80;1.67;;;;;;;;;;5078901;28;20034;-80
2023/05/09 14:32:40;;;;;;;4.13;1.90;;;;;;;;;;5072992;28;20032;-84
2023/05/09 14:35:06;;;;;;;4.15;1.92;;;;;;;;;;5074181;28;20031;-80
2023/05/09 14:37:32;;;;;;;2.72;1.80;;;;;;;;;;5071595;28;20155;-83
2023/05/09 14:40:04;;;;;;;3.10;1.92;;;;;;;;;;5070105;28;20514;-81
2023/05/09 14:42:30;;;;;;;3.17;1.73;;;;;;;;;;5071361;28;20560;-82
2023/05/09 14:44:55;;;;;;;2.95;1.85;;;;;;;;;;5081269;28;20121;-82